Sunday, December 16, 2018, 6:10 AM EST
Back to Local

KPQI, Presque Isle

Location: Presque Isle, ME, United States Lat: 46.683
Local Time: 6:10 AM EST (11:10 GMT) Lon: -68.05
Time Zone: US/Eastern Elev: 534 ft

Show me the last for .
Show Decoded

2018-12-16 06:04 METAR KPQI 161104Z AUTO 34004KT 3/4SM BR OVC001 M12/M13 A3023 RMK AO2 VIS 1/4V5
                 FZRANO RVRNO =
2018-12-16 05:54 METAR KPQI 161054Z AUTO 02003KT 1/4SM FZFG OVC001 M12/M14 A3024 RMK AO2 FZRANO
                 RVRNO =
2018-12-16 05:30 METAR KPQI 161030Z AUTO 00000KT 1/2SM FZFG BKN001 M12/M13 A3024 RMK AO2 FZRANO
                 RVRNO =
2018-12-16 05:27 METAR KPQI 161027Z AUTO 08003KT 1SM BR BKN001 M12/M13 A3024 RMK AO2 FZRANO RVRNO
                 =
2018-12-16 05:21 METAR KPQI 161021Z AUTO 00000KT 2 1/2SM BR BKN001 M11/M12 A3024 RMK AO2 FZRANO =
2018-12-16 05:17 METAR KPQI 161017Z AUTO 00000KT 1SM BR OVC001 M11/M12 A3024 RMK AO2 VIS 1/4V5
                 FZRANO RVRNO =
2018-12-16 05:11 METAR KPQI 161011Z AUTO 28004KT 1/2SM FZFG OVC001 M11/M12 A3024 RMK AO2 FZRANO
                 RVRNO =
2018-12-16 04:56 METAR KPQI 160956Z AUTO 31005KT 1/4SM FZFG OVC001 M12/M13 A3024 RMK AO2 SLP288
                 T11171128 FZRANO RVRNO =
2018-12-16 04:49 METAR KPQI 160949Z AUTO 00000KT 1/2SM FZFG OVC001 M11/M13 A3025 RMK AO2 FZRANO
                 RVRNO =
2018-12-16 04:47 METAR KPQI 160947Z AUTO 03003KT 1SM BR OVC001 M11/M13 A3025 RMK AO2 FZRANO RVRNO
                 =
2018-12-16 04:33 METAR KPQI 160933Z AUTO 00000KT 10SM OVC001 M11/M12 A3025 RMK AO2 FZRANO =
2018-12-16 04:25 METAR KPQI 160925Z AUTO 00000KT 2SM BR BKN001 M10/M11 A3024 RMK AO2 FZRANO =
2018-12-16 04:20 METAR KPQI 160920Z AUTO 00000KT 1SM BR BKN001 M10/M11 A3024 RMK AO2 FZRANO RVRNO
                 =
2018-12-16 04:12 METAR KPQI 160912Z AUTO 00000KT 1 1/4SM BR BKN001 M10/M11 A3024 RMK AO2 FZRANO =
2018-12-16 04:01 METAR KPQI 160901Z AUTO VRB03KT 3/4SM BR VV001 M11/M12 A3024 RMK AO2 FZRANO
                 RVRNO =
2018-12-16 03:56 METAR KPQI 160856Z AUTO 00000KT 1/2SM FZFG BKN002 M11/M13 A3024 RMK AO2 SLP288
                 T11111128 53002 FZRANO RVRNO =
2018-12-16 03:47 METAR KPQI 160847Z AUTO 00000KT 3/4SM BR OVC002 M11/M12 A3024 RMK AO2 FZRANO
                 RVRNO =
2018-12-16 03:35 METAR KPQI 160835Z AUTO 17003KT 1/4SM FZFG OVC002 M10/M12 A3024 RMK AO2 FZRANO
                 RVRNO =
2018-12-16 03:26 METAR KPQI 160826Z AUTO 00000KT 1/2SM FZFG OVC002 M10/M12 A3024 RMK AO2 VIS
                 1/4V3 FZRANO RVRNO =
2018-12-16 03:05 METAR KPQI 160805Z AUTO 13003KT 1/4SM FZFG OVC002 M09/M11 A3023 RMK AO2 FZRANO
                 RVRNO =
2018-12-16 03:01 METAR KPQI 160801Z AUTO 00000KT 3/4SM BR OVC002 M09/M11 A3023 RMK AO2 VIS 1/4V5
                 FZRANO RVRNO =
2018-12-16 02:56 METAR KPQI 160756Z AUTO 00000KT 1/4SM FZFG OVC002 M09/M11 A3023 RMK AO2 SLP284
                 T10941106 FZRANO RVRNO =
2018-12-16 02:47 METAR KPQI 160747Z AUTO 00000KT 1/4SM FZFG BKN002 M09/M11 A3023 RMK AO2 FZRANO
                 RVRNO =
2018-12-16 02:42 METAR KPQI 160742Z AUTO 00000KT 3/4SM BR BKN002 M10/M12 A3024 RMK AO2 FZRANO
                 RVRNO =
2018-12-16 02:39 METAR KPQI 160739Z AUTO 00000KT 1 1/4SM BR BKN002 M10/M12 A3024 RMK AO2 FZRANO =
2018-12-16 02:13 METAR KPQI 160713Z AUTO 19005KT 6SM BR SCT002 M08/M09 A3024 RMK AO2 FZRANO =
2018-12-16 02:11 METAR KPQI 160711Z AUTO 20004KT 1 1/4SM BR SCT002 M08/M09 A3024 RMK AO2 FZRANO =
2018-12-16 02:09 METAR KPQI 160709Z AUTO 19003KT 3/4SM BR VV002 M08/M09 A3024 RMK AO2 FZRANO
                 RVRNO =
2018-12-16 02:02 METAR KPQI 160702Z AUTO 00000KT 3/4SM BR CLR M08/M08 A3023 RMK AO2 FZRANO RVRNO
                 =
2018-12-16 02:00 METAR KPQI 160700Z AUTO 00000KT 1 1/4SM BR CLR M08/M08 A3023 RMK AO2 FZRANO =
2018-12-16 01:56 METAR KPQI 160656Z AUTO 00000KT 10SM CLR M08/M08 A3023 RMK AO2 SLP285 T10781083
                 FZRANO =
2018-12-16 01:39 METAR KPQI 160639Z AUTO 02003KT 6SM BR FEW001 M08/M09 A3023 RMK AO2 FZRANO =
2018-12-16 01:30 METAR KPQI 160630Z AUTO 03003KT 3/4SM BR VV001 M08/M09 A3023 RMK AO2 FZRANO
                 RVRNO =
2018-12-16 01:23 METAR KPQI 160623Z AUTO 06003KT 1/4SM FZFG VV001 M08/M09 A3024 RMK AO2 FZRANO
                 RVRNO =
2018-12-16 01:16 METAR KPQI 160616Z AUTO 00000KT 1/2SM FZFG CLR M08/M08 A3024 RMK AO2 FZRANO
                 RVRNO =
2018-12-16 01:08 METAR KPQI 160608Z AUTO 00000KT 3/4SM BR CLR M09/M10 A3024 RMK AO2 FZRANO RVRNO
                 =
2018-12-16 01:06 METAR KPQI 160606Z AUTO 00000KT 1 1/2SM BR CLR M09/M10 A3024 RMK AO2 FZRANO =
2018-12-16 00:56 METAR KPQI 160556Z AUTO 25003KT 10SM CLR M08/M10 A3024 RMK AO2 SLP288 T10831100
                 10011 21083 50011 FZRANO =
2018-12-16 00:51 METAR KPQI 160551Z AUTO 24003KT 2 1/2SM BR CLR M08/M10 A3024 RMK AO2 FZRANO =
2018-12-16 00:45 METAR KPQI 160545Z AUTO 00000KT 1SM BR CLR M08/M09 A3024 RMK AO2 VIS 3/4V5
                 FZRANO RVRNO =
2018-12-16 00:33 METAR KPQI 160533Z AUTO 00000KT 1/2SM FZFG CLR M08/M09 A3024 RMK AO2 FZRANO
                 RVRNO =
2018-12-16 00:30 METAR KPQI 160530Z AUTO 00000KT 1 1/4SM BR CLR M08/M09 A3024 RMK AO2 VIS 1/4V5
                 FZRANO =
2018-12-16 00:25 METAR KPQI 160525Z AUTO 00000KT 3SM BR CLR M08/M09 A3024 RMK AO2 FZRANO =
2018-12-16 00:15 METAR KPQI 160515Z AUTO 00000KT 1 3/4SM BR CLR M08/M09 A3024 RMK AO2 FZRANO =
2018-12-16 00:06 METAR KPQI 160506Z AUTO 26004KT 10SM CLR M08/M09 A3024 RMK AO2 FZRANO =
2018-12-15 23:56 METAR KPQI 160456Z AUTO 00000KT 2 1/2SM BR CLR M07/M08 A3024 RMK AO2 SLP289
                 T10721083 400281072 FZRANO =
2018-12-15 23:36 METAR KPQI 160436Z AUTO 25003KT 9SM CLR M04/M05 A3023 RMK AO2 FZRANO =
2018-12-15 23:29 METAR KPQI 160429Z AUTO 23004KT 2 1/2SM BR FEW001 M06/M06 A3023 RMK AO2 FZRANO =
2018-12-15 23:25 METAR KPQI 160425Z AUTO 22004KT 1SM BR VV001 M06/M06 A3022 RMK AO2 VIS 1/2V5
                 FZRANO RVRNO =
2018-12-15 23:19 METAR KPQI 160419Z AUTO 00000KT 1/2SM FZFG VV001 M06/M07 A3023 RMK AO2 FZRANO
                 RVRNO =
2018-12-15 22:56 METAR KPQI 160356Z AUTO 00000KT 1/4SM FZFG VV002 M06/M07 A3022 RMK AO2 SLP280
                 T10561067 FZRANO RVRNO =
2018-12-15 22:36 METAR KPQI 160336Z AUTO 00000KT 1/4SM FZFG VV001 M04/M05 A3022 RMK AO2 FZRANO
                 RVRNO =
2018-12-15 22:32 METAR KPQI 160332Z AUTO 00000KT 3/4SM BR VV001 M04/M04 A3022 RMK AO2 FZRANO
                 RVRNO =
2018-12-15 22:20 METAR KPQI 160320Z AUTO 27004KT 3SM BR CLR M04/M05 A3021 RMK AO2 FZRANO =
2018-12-15 22:18 METAR KPQI 160318Z AUTO 27004KT 1 1/4SM BR CLR M04/M05 A3021 RMK AO2 FZRANO =
2018-12-15 22:07 METAR KPQI 160307Z AUTO 00000KT 3/4SM BR CLR M05/M06 A3021 RMK AO2 VIS 1/2V5
                 FZRANO RVRNO =
2018-12-15 22:02 METAR KPQI 160302Z AUTO 00000KT 1 3/4SM BR CLR M04/M06 A3021 RMK AO2 VIS 1/2V5
                 FZRANO =
2018-12-15 21:59 METAR KPQI 160259Z AUTO 00000KT 4SM BR CLR M04/M05 A3021 RMK AO2 FZRANO =
2018-12-15 21:56 METAR KPQI 160256Z AUTO 22004KT 1 3/4SM BR CLR M04/M05 A3021 RMK AO2 SLP275
                 T10391050 51005 FZRANO =
2018-12-15 21:54 METAR KPQI 160254Z AUTO 22005KT 1 1/4SM BR CLR M04/M05 A3021 RMK AO2 FZRANO =
2018-12-15 21:44 METAR KPQI 160244Z AUTO 20004KT 3/4SM BR CLR M04/M04 A3021 RMK AO2 VIS 1/2V3
                 FZRANO RVRNO
2018-12-15 21:41 METAR KPQI 160241Z AUTO 00000KT 1 1/4SM BR CLR M04/M05 A3021 RMK AO2 VIS 1/2V3
                 FZRANO =
2018-12-15 21:32 METAR KPQI 160232Z AUTO 00000KT 2SM BR CLR M04/M06 A3021 RMK AO2 VIS 3/4V5
                 FZRANO =
2018-12-15 21:28 METAR KPQI 160228Z AUTO 00000KT 1SM BR CLR M03/M04 A3021 RMK AO2 VIS 1/4V5
                 FZRANO RVRNO =
2018-12-15 20:56 METAR KPQI 160156Z AUTO 00000KT 10SM CLR M03/M04 A3020 RMK AO2 SLP273 T10281044
                 FZRANO =
2018-12-15 19:56 METAR KPQI 160056Z AUTO 28004KT 10SM OVC047 01/M02 A3020 RMK AO2 SLP275
                 T00061017 FZRANO =
2018-12-15 18:56 METAR KPQI 152356Z AUTO 30004KT 10SM OVC045 02/M02 A3019 RMK AO2 SLP271
                 T00171022 10028 20017 51021 FZRANO =
2018-12-15 17:56 METAR KPQI 152256Z AUTO 31006KT 10SM OVC045 02/M01 A3018 RMK AO2 SLP265
                 T00171011 FZRANO =
2018-12-15 16:56 METAR KPQI 152156Z AUTO 26008KT 10SM OVC041 02/M01 A3015 RMK AO2 SLP257
                 T00221011 FZRANO =
2018-12-15 15:56 METAR KPQI 152056Z AUTO 27008KT 10SM OVC047 02/M01 A3013 RMK AO2 SLP249
                 T00221011 53028 FZRANO =
2018-12-15 14:56 METAR KPQI 151956Z AUTO 27008KT 10SM SCT049 02/M01 A3010 RMK AO2 SLP238
                 T00221011 FZRANO =
2018-12-15 13:56 METAR KPQI 151856Z AUTO 26008KT 10SM BKN050 03/M01 A3007 RMK AO2 SLP227
                 T00281006 =
2018-12-15 12:56 METAR KPQI 151756Z AUTO 27008KT 10SM OVC060 03/M01 A3005 RMK AO2 SLP221 60001
                 T00281006 10028 20006 53005 =
2018-12-15 11:56 METAR KPQI 151656Z AUTO 27009KT 10SM OVC055 02/M01 A3004 RMK AO2 SLP219
                 T00221006 FZRANO =
2018-12-15 10:56 METAR KPQI 151556Z AUTO 26009KT 10SM OVC055 02/M01 A3003 RMK AO2 SLP217
                 T00221011 FZRANO =
2018-12-15 09:56 METAR KPQI 151456Z AUTO 25007KT 10SM FEW038 OVC049 02/M01 A3003 RMK AO2 SLP216
                 60001 T00221006 51020 FZRANO =
2018-12-15 08:56 METAR KPQI 151356Z AUTO 27007KT 10SM OVC041 02/M01 A3002 RMK AO2 RAE30 SLP212
                 P0001 T00171006 FZRANO =
2018-12-15 08:39 METAR KPQI 151339Z AUTO 25008KT 10SM FEW013 SCT023 OVC039 02/M01 A3001 RMK AO2
                 RAE30 P0001 FZRANO =
2018-12-15 08:29 METAR KPQI 151329Z AUTO 27009KT 10SM -RA SCT011 BKN018 OVC035 01/00 A3001 RMK
                 AO2 P0001 FZRANO =
2018-12-15 08:18 METAR KPQI 151318Z AUTO 27005KT 3SM RA BR FEW008 BKN013 OVC019 01/00 A3002 RMK
                 AO2 P0001 FZRANO =
2018-12-15 07:56 METAR KPQI 151256Z AUTO 33003KT 8SM -RA SCT020 BKN025 OVC033 01/M01 A3001 RMK
                 AO2 RAB55 SLP206 P0000 T00061006 FZRANO =
2018-12-15 07:09 METAR KPQI 151209Z AUTO 23004KT 10SM SCT019 OVC035 01/00 A2998 RMK AO2 FZRANO =
2018-12-15 06:56 METAR KPQI 151156Z AUTO 25005KT 10SM BKN019 BKN027 OVC035 00/M01 A2997 RMK AO2
                 SLP195 60000 70003 T00001006 10017 21006 53004 FZRANO =

Support USWX by starting your Amazon purchase here.